sensor_id;sensor_type;location;lat;lon;timestamp;pressure;altitude;pressure_sealevel;temperature;humidity
19751;BME280;4663;49.120;9.730;2023-03-04T00:01:35;98595.66;;;-5.42;84.13
19751;BME280;4663;49.120;9.730;2023-03-04T00:04:01;98587.53;;;-5.38;83.55
19751;BME280;4663;49.120;9.730;2023-03-04T00:06:26;98607.72;;;-5.57;84.95
19751;BME280;4663;49.120;9.730;2023-03-04T00:08:51;98602.69;;;-5.43;84.18
19751;BME280;4663;49.120;9.730;2023-03-04T00:11:17;98595.88;;;-5.47;83.63
19751;BME280;4663;49.120;9.730;2023-03-04T00:13:42;98598.91;;;-5.56;84.09
19751;BME280;4663;49.120;9.730;2023-03-04T00:16:07;98597.78;;;-5.51;84.29
19751;BME280;4663;49.120;9.730;2023-03-04T00:18:33;98599.44;;;-5.69;84.76
19751;BME280;4663;49.120;9.730;2023-03-04T00:20:58;98599.50;;;-5.50;84.77
19751;BME280;4663;49.120;9.730;2023-03-04T00:23:24;98596.50;;;-5.61;84.28
19751;BME280;4663;49.120;9.730;2023-03-04T00:25:49;98603.56;;;-5.82;85.39
19751;BME280;4663;49.120;9.730;2023-03-04T00:28:14;98605.31;;;-5.83;85.93
19751;BME280;4663;49.120;9.730;2023-03-04T00:30:40;98605.13;;;-5.78;85.58
19751;BME280;4663;49.120;9.730;2023-03-04T00:33:05;98596.84;;;-5.90;85.64
19751;BME280;4663;49.120;9.730;2023-03-04T00:35:31;98610.00;;;-5.90;86.15
19751;BME280;4663;49.120;9.730;2023-03-04T00:37:56;98597.78;;;-5.91;85.26
19751;BME280;4663;49.120;9.730;2023-03-04T00:40:21;98600.53;;;-5.94;85.31
19751;BME280;4663;49.120;9.730;2023-03-04T00:42:47;98600.94;;;-6.03;85.19
19751;BME280;4663;49.120;9.730;2023-03-04T00:45:12;98605.16;;;-6.20;86.30
19751;BME280;4663;49.120;9.730;2023-03-04T00:47:37;98603.41;;;-6.21;86.68
19751;BME280;4663;49.120;9.730;2023-03-04T00:50:03;98607.72;;;-6.18;86.00
19751;BME280;4663;49.120;9.730;2023-03-04T00:52:28;98599.88;;;-6.20;85.83
19751;BME280;4663;49.120;9.730;2023-03-04T00:54:54;98602.63;;;-6.23;86.40
19751;BME280;4663;49.120;9.730;2023-03-04T00:57:19;98595.47;;;-6.19;86.78
19751;BME280;4663;49.120;9.730;2023-03-04T00:59:44;98591.13;;;-6.20;85.68
19751;BME280;4663;49.120;9.730;2023-03-04T01:02:10;98591.19;;;-6.22;86.46
19751;BME280;4663;49.120;9.730;2023-03-04T01:04:36;98592.13;;;-6.23;86.03
19751;BME280;4663;49.120;9.730;2023-03-04T01:07:02;98595.94;;;-6.10;86.04
19751;BME280;4663;49.120;9.730;2023-03-04T01:09:27;98578.56;;;-6.14;85.63
19751;BME280;4663;49.120;9.730;2023-03-04T01:11:52;98584.63;;;-6.32;86.48
19751;BME280;4663;49.120;9.730;2023-03-04T01:14:18;98590.25;;;-6.42;86.27
19751;BME280;4663;49.120;9.730;2023-03-04T01:16:43;98590.41;;;-6.24;85.43
19751;BME280;4663;49.120;9.730;2023-03-04T01:19:08;98590.00;;;-6.36;85.60
19751;BME280;4663;49.120;9.730;2023-03-04T01:21:34;98589.97;;;-6.34;85.41
19751;BME280;4663;49.120;9.730;2023-03-04T01:23:59;98591.13;;;-6.41;85.70
19751;BME280;4663;49.120;9.730;2023-03-04T01:26:25;98582.75;;;-6.51;86.00
19751;BME280;4663;49.120;9.730;2023-03-04T01:28:50;98582.44;;;-6.43;85.81
19751;BME280;4663;49.120;9.730;2023-03-04T01:31:15;98578.16;;;-6.46;85.53
19751;BME280;4663;49.120;9.730;2023-03-04T01:33:41;98583.41;;;-6.46;86.20
19751;BME280;4663;49.120;9.730;2023-03-04T01:36:06;98571.31;;;-6.50;86.20
19751;BME280;4663;49.120;9.730;2023-03-04T01:38:32;98581.38;;;-6.60;86.26
19751;BME280;4663;49.120;9.730;2023-03-04T01:40:57;98567.28;;;-6.59;86.45
19751;BME280;4663;49.120;9.730;2023-03-04T01:43:27;98573.41;;;-6.58;86.34
19751;BME280;4663;49.120;9.730;2023-03-04T01:45:54;98562.31;;;-6.65;86.70
19751;BME280;4663;49.120;9.730;2023-03-04T01:48:24;98563.91;;;-6.61;85.96
19751;BME280;4663;49.120;9.730;2023-03-04T01:50:51;98573.31;;;-6.55;86.17
19751;BME280;4663;49.120;9.730;2023-03-04T01:53:25;98562.78;;;-6.55;86.17
19751;BME280;4663;49.120;9.730;2023-03-04T01:56:00;98563.44;;;-6.50;86.05
19751;BME280;4663;49.120;9.730;2023-03-04T01:58:28;98562.19;;;-6.62;86.09
19751;BME280;4663;49.120;9.730;2023-03-04T02:00:54;98569.16;;;-6.83;87.38
19751;BME280;4663;49.120;9.730;2023-03-04T02:03:19;98563.00;;;-6.82;87.29
19751;BME280;4663;49.120;9.730;2023-03-04T02:05:48;98554.31;;;-6.84;87.65
19751;BME280;4663;49.120;9.730;2023-03-04T02:08:15;98561.94;;;-6.78;86.43
19751;BME280;4663;49.120;9.730;2023-03-04T02:10:42;98566.72;;;-6.88;87.30
19751;BME280;4663;49.120;9.730;2023-03-04T02:13:08;98554.78;;;-6.75;86.71
19751;BME280;4663;49.120;9.730;2023-03-04T02:15:33;98555.19;;;-6.84;87.53
19751;BME280;4663;49.120;9.730;2023-03-04T02:18:00;98547.72;;;-6.72;86.77
19751;BME280;4663;49.120;9.730;2023-03-04T02:20:48;98552.25;;;-6.76;86.83
19751;BME280;4663;49.120;9.730;2023-03-04T02:26:20;98550.34;;;-6.72;86.32
19751;BME280;4663;49.120;9.730;2023-03-04T02:28:50;98544.59;;;-6.82;85.32
19751;BME280;4663;49.120;9.730;2023-03-04T02:33:54;98552.13;;;-7.18;87.55
19751;BME280;4663;49.120;9.730;2023-03-04T02:36:21;98547.53;;;-7.13;88.06
19751;BME280;4663;49.120;9.730;2023-03-04T02:38:51;98549.94;;;-7.06;88.32
19751;BME280;4663;49.120;9.730;2023-03-04T02:41:21;98542.91;;;-7.06;87.65
19751;BME280;4663;49.120;9.730;2023-03-04T02:43:53;98547.59;;;-7.14;87.78
19751;BME280;4663;49.120;9.730;2023-03-04T02:46:19;98541.94;;;-7.03;87.18
19751;BME280;4663;49.120;9.730;2023-03-04T02:48:44;98547.09;;;-7.24;87.42
19751;BME280;4663;49.120;9.730;2023-03-04T02:51:10;98554.56;;;-7.35;87.42
19751;BME280;4663;49.120;9.730;2023-03-04T02:53:35;98547.53;;;-7.13;87.87
19751;BME280;4663;49.120;9.730;2023-03-04T02:56:01;98550.59;;;-7.23;87.66
19751;BME280;4663;49.120;9.730;2023-03-04T02:58:26;98545.47;;;-7.04;87.14
19751;BME280;4663;49.120;9.730;2023-03-04T03:00:52;98541.38;;;-7.11;86.22
19751;BME280;4663;49.120;9.730;2023-03-04T03:03:17;98546.22;;;-7.23;86.37
19751;BME280;4663;49.120;9.730;2023-03-04T03:05:43;98536.97;;;-7.11;85.96
19751;BME280;4663;49.120;9.730;2023-03-04T03:08:08;98541.72;;;-7.21;86.56
19751;BME280;4663;49.120;9.730;2023-03-04T03:10:34;98541.34;;;-7.34;86.95
19751;BME280;4663;49.120;9.730;2023-03-04T03:12:59;98541.69;;;-7.19;86.38
19751;BME280;4663;49.120;9.730;2023-03-04T03:15:25;98538.63;;;-7.08;85.95
19751;BME280;4663;49.120;9.730;2023-03-04T03:17:50;98544.19;;;-7.16;85.62
19751;BME280;4663;49.120;9.730;2023-03-04T03:20:16;98543.75;;;-7.28;86.54
19751;BME280;4663;49.120;9.730;2023-03-04T03:22:42;98553.63;;;-7.34;87.29
19751;BME280;4663;49.120;9.730;2023-03-04T03:25:08;98546.25;;;-7.24;86.80
19751;BME280;4663;49.120;9.730;2023-03-04T03:27:34;98553.03;;;-7.41;87.69
19751;BME280;4663;49.120;9.730;2023-03-04T03:30:00;98546.69;;;-7.13;86.77
19751;BME280;4663;49.120;9.730;2023-03-04T03:32:25;98544.19;;;-7.16;86.37
19751;BME280;4663;49.120;9.730;2023-03-04T03:34:51;98542.53;;;-7.19;86.02
19751;BME280;4663;49.120;9.730;2023-03-04T03:37:16;98536.78;;;-7.29;86.44
19751;BME280;4663;49.120;9.730;2023-03-04T03:39:42;98547.19;;;-7.25;86.81
19751;BME280;4663;49.120;9.730;2023-03-04T03:42:07;98529.84;;;-7.30;86.28
19751;BME280;4663;49.120;9.730;2023-03-04T03:44:32;98538.13;;;-7.18;86.82
19751;BME280;4663;49.120;9.730;2023-03-04T03:46:58;98548.41;;;-7.58;87.17
19751;BME280;4663;49.120;9.730;2023-03-04T03:49:23;98533.63;;;-7.37;86.42
19751;BME280;4663;49.120;9.730;2023-03-04T03:51:49;98533.38;;;-7.31;85.35
19751;BME280;4663;49.120;9.730;2023-03-04T03:54:14;98531.81;;;-7.36;85.50
19751;BME280;4663;49.120;9.730;2023-03-04T03:56:39;98531.06;;;-7.38;85.85
19751;BME280;4663;49.120;9.730;2023-03-04T03:59:05;98536.25;;;-7.37;85.46
19751;BME280;4663;49.120;9.730;2023-03-04T04:01:30;98531.81;;;-7.36;85.56
19751;BME280;4663;49.120;9.730;2023-03-04T04:03:57;98539.25;;;-7.48;86.14
19751;BME280;4663;49.120;9.730;2023-03-04T04:06:23;98544.47;;;-7.70;87.12
19751;BME280;4663;49.120;9.730;2023-03-04T04:08:48;98552.16;;;-7.42;86.48
19751;BME280;4663;49.120;9.730;2023-03-04T04:11:14;98549.09;;;-7.53;86.83
19751;BME280;4663;49.120;9.730;2023-03-04T04:13:39;98543.44;;;-7.66;86.78
19751;BME280;4663;49.120;9.730;2023-03-04T04:16:05;98547.38;;;-7.54;86.04
19751;BME280;4663;49.120;9.730;2023-03-04T04:18:30;98553.34;;;-7.74;85.81
19751;BME280;4663;49.120;9.730;2023-03-04T04:20:56;98559.22;;;-7.92;86.35
19751;BME280;4663;49.120;9.730;2023-03-04T04:23:21;98561.81;;;-7.92;87.17
19751;BME280;4663;49.120;9.730;2023-03-04T04:25:46;98551.34;;;-7.92;86.39
19751;BME280;4663;49.120;9.730;2023-03-04T04:28:12;98563.69;;;-7.70;86.16
19751;BME280;4663;49.120;9.730;2023-03-04T04:30:38;98556.03;;;-7.52;85.54
19751;BME280;4663;49.120;9.730;2023-03-04T04:33:03;98559.72;;;-7.82;85.84
19751;BME280;4663;49.120;9.730;2023-03-04T04:35:33;98566.38;;;-7.97;86.97
19751;BME280;4663;49.120;9.730;2023-03-04T04:37:59;98568.13;;;-8.21;87.81
19751;BME280;4663;49.120;9.730;2023-03-04T04:40:25;98562.66;;;-8.15;87.70
19751;BME280;4663;49.120;9.730;2023-03-04T04:42:50;98561.25;;;-8.00;86.73
19751;BME280;4663;49.120;9.730;2023-03-04T04:45:16;98559.34;;;-7.95;84.84
19751;BME280;4663;49.120;9.730;2023-03-04T04:47:41;98548.66;;;-7.90;84.22
19751;BME280;4663;49.120;9.730;2023-03-04T04:50:07;98550.44;;;-7.91;84.20
19751;BME280;4663;49.120;9.730;2023-03-04T04:52:33;98564.88;;;-8.04;84.66
19751;BME280;4663;49.120;9.730;2023-03-04T04:54:58;98550.09;;;-8.05;84.10
19751;BME280;4663;49.120;9.730;2023-03-04T04:57:23;98552.69;;;-8.05;83.79
19751;BME280;4663;49.120;9.730;2023-03-04T04:59:49;98554.66;;;-8.10;83.74
19751;BME280;4663;49.120;9.730;2023-03-04T05:02:14;98556.50;;;-8.14;84.63
19751;BME280;4663;49.120;9.730;2023-03-04T05:04:40;98554.63;;;-8.36;86.59
19751;BME280;4663;49.120;9.730;2023-03-04T05:07:05;98565.97;;;-8.35;86.65
19751;BME280;4663;49.120;9.730;2023-03-04T05:09:30;98573.50;;;-8.51;87.31
19751;BME280;4663;49.120;9.730;2023-03-04T05:11:56;98585.66;;;-8.23;87.31
19751;BME280;4663;49.120;9.730;2023-03-04T05:14:21;98583.72;;;-8.18;87.25
19751;BME280;4663;49.120;9.730;2023-03-04T05:16:47;98575.22;;;-7.99;86.28
19751;BME280;4663;49.120;9.730;2023-03-04T05:19:12;98583.63;;;-7.89;86.25
19751;BME280;4663;49.120;9.730;2023-03-04T05:21:37;98585.94;;;-7.82;86.06
19751;BME280;4663;49.120;9.730;2023-03-04T05:24:03;98572.47;;;-7.71;86.12
19751;BME280;4663;49.120;9.730;2023-03-04T05:26:29;98574.06;;;-7.67;85.34
19751;BME280;4663;49.120;9.730;2023-03-04T05:28:54;98580.81;;;-7.59;84.71
19751;BME280;4663;49.120;9.730;2023-03-04T05:31:20;98567.94;;;-7.43;84.46
19751;BME280;4663;49.120;9.730;2023-03-04T05:33:45;98582.50;;;-7.34;83.93
19751;BME280;4663;49.120;9.730;2023-03-04T05:36:10;98580.66;;;-7.32;83.83
19751;BME280;4663;49.120;9.730;2023-03-04T05:38:36;98583.84;;;-7.24;84.57
19751;BME280;4663;49.120;9.730;2023-03-04T05:41:04;98581.06;;;-7.19;84.30
19751;BME280;4663;49.120;9.730;2023-03-04T05:43:30;98589.03;;;-7.22;85.29
19751;BME280;4663;49.120;9.730;2023-03-04T05:45:56;98577.22;;;-7.10;85.38
19751;BME280;4663;49.120;9.730;2023-03-04T05:48:22;98588.34;;;-7.04;84.92
19751;BME280;4663;49.120;9.730;2023-03-04T05:50:55;98592.97;;;-7.10;85.20
19751;BME280;4663;49.120;9.730;2023-03-04T05:53:22;98591.28;;;-6.89;85.12
19751;BME280;4663;49.120;9.730;2023-03-04T05:55:48;98594.69;;;-6.87;85.60
19751;BME280;4663;49.120;9.730;2023-03-04T05:58:14;98588.53;;;-6.86;84.96
19751;BME280;4663;49.120;9.730;2023-03-04T06:00:40;98595.06;;;-6.74;85.33
19751;BME280;4663;49.120;9.730;2023-03-04T06:03:05;98604.16;;;-6.83;86.30
19751;BME280;4663;49.120;9.730;2023-03-04T06:05:31;98611.47;;;-6.91;87.23
19751;BME280;4663;49.120;9.730;2023-03-04T06:07:56;98610.22;;;-6.58;86.73
19751;BME280;4663;49.120;9.730;2023-03-04T06:10:21;98615.28;;;-6.76;86.59
19751;BME280;4663;49.120;9.730;2023-03-04T06:12:47;98619.72;;;-6.56;86.59
19751;BME280;4663;49.120;9.730;2023-03-04T06:15:12;98611.31;;;-6.64;86.58
19751;BME280;4663;49.120;9.730;2023-03-04T06:17:39;98621.84;;;-6.43;86.50
19751;BME280;4663;49.120;9.730;2023-03-04T06:20:05;98614.25;;;-6.29;86.18
19751;BME280;4663;49.120;9.730;2023-03-04T06:22:32;98626.88;;;-6.16;85.86
19751;BME280;4663;49.120;9.730;2023-03-04T06:24:57;98620.66;;;-6.14;85.79
19751;BME280;4663;49.120;9.730;2023-03-04T06:27:23;98623.97;;;-6.08;85.41
19751;BME280;4663;49.120;9.730;2023-03-04T06:29:48;98620.00;;;-5.98;85.35
19751;BME280;4663;49.120;9.730;2023-03-04T06:32:13;98626.97;;;-5.97;85.14
19751;BME280;4663;49.120;9.730;2023-03-04T06:34:39;98630.84;;;-5.85;85.03
19751;BME280;4663;49.120;9.730;2023-03-04T06:37:04;98627.16;;;-5.81;85.32
19751;BME280;4663;49.120;9.730;2023-03-04T06:39:30;98636.63;;;-5.77;85.38
19751;BME280;4663;49.120;9.730;2023-03-04T06:41:55;98634.31;;;-5.64;84.83
19751;BME280;4663;49.120;9.730;2023-03-04T06:44:20;98640.16;;;-5.57;84.99
19751;BME280;4663;49.120;9.730;2023-03-04T06:46:46;98636.59;;;-5.56;85.36
19751;BME280;4663;49.120;9.730;2023-03-04T06:49:11;98642.72;;;-5.55;86.02
19751;BME280;4663;49.120;9.730;2023-03-04T06:51:36;98637.84;;;-5.44;85.58
19751;BME280;4663;49.120;9.730;2023-03-04T06:54:02;98638.34;;;-5.36;84.72
19751;BME280;4663;49.120;9.730;2023-03-04T06:56:27;98643.63;;;-5.36;85.07
19751;BME280;4663;49.120;9.730;2023-03-04T06:58:53;98640.50;;;-5.25;84.56
19751;BME280;4663;49.120;9.730;2023-03-04T07:03:45;98655.47;;;-5.06;84.19
19751;BME280;4663;49.120;9.730;2023-03-04T07:06:12;98646.56;;;-5.03;84.30
19751;BME280;4663;49.120;9.730;2023-03-04T07:08:38;98645.22;;;-4.93;84.35
19751;BME280;4663;49.120;9.730;2023-03-04T07:11:04;98646.72;;;-4.87;84.89
19751;BME280;4663;49.120;9.730;2023-03-04T07:13:30;98646.63;;;-4.86;84.93
19751;BME280;4663;49.120;9.730;2023-03-04T07:15:55;98657.00;;;-4.83;84.97
19751;BME280;4663;49.120;9.730;2023-03-04T07:18:21;98654.63;;;-4.87;85.18
19751;BME280;4663;49.120;9.730;2023-03-04T07:20:46;98654.72;;;-4.71;85.12
19751;BME280;4663;49.120;9.730;2023-03-04T07:23:12;98649.00;;;-4.62;84.73
19751;BME280;4663;49.120;9.730;2023-03-04T07:25:37;98654.78;;;-4.53;84.26
19751;BME280;4663;49.120;9.730;2023-03-04T07:28:02;98652.16;;;-4.53;84.35
19751;BME280;4663;49.120;9.730;2023-03-04T07:30:28;98655.41;;;-4.48;84.26
19751;BME280;4663;49.120;9.730;2023-03-04T07:32:56;98651.38;;;-4.38;84.42
19751;BME280;4663;49.120;9.730;2023-03-04T07:35:22;98649.94;;;-4.26;83.75
19751;BME280;4663;49.120;9.730;2023-03-04T07:37:47;98656.09;;;-4.25;84.44
19751;BME280;4663;49.120;9.730;2023-03-04T07:40:13;98661.03;;;-4.19;83.96
19751;BME280;4663;49.120;9.730;2023-03-04T07:42:38;98656.88;;;-4.06;83.65
19751;BME280;4663;49.120;9.730;2023-03-04T07:45:04;98659.19;;;-4.17;83.26
19751;BME280;4663;49.120;9.730;2023-03-04T07:47:30;98659.19;;;-3.99;83.27
19751;BME280;4663;49.120;9.730;2023-03-04T07:49:55;98659.19;;;-4.17;82.98
19751;BME280;4663;49.120;9.730;2023-03-04T07:52:21;98661.22;;;-4.05;83.10
19751;BME280;4663;49.120;9.730;2023-03-04T07:54:46;98667.03;;;-4.15;83.14
19751;BME280;4663;49.120;9.730;2023-03-04T07:57:12;98675.03;;;-4.17;83.37
19751;BME280;4663;49.120;9.730;2023-03-04T07:59:37;98666.91;;;-4.32;83.29
19751;BME280;4663;49.120;9.730;2023-03-04T08:02:02;98671.44;;;-4.16;83.11
19751;BME280;4663;49.120;9.730;2023-03-04T08:04:28;98674.25;;;-4.01;83.64
19751;BME280;4663;49.120;9.730;2023-03-04T08:06:53;98680.63;;;-3.88;82.97
19751;BME280;4663;49.120;9.730;2023-03-04T08:09:18;98684.97;;;-3.87;83.35
19751;BME280;4663;49.120;9.730;2023-03-04T08:11:44;98679.59;;;-3.85;83.10
19751;BME280;4663;49.120;9.730;2023-03-04T08:14:12;98679.53;;;-3.84;83.23
19751;BME280;4663;49.120;9.730;2023-03-04T08:16:38;98684.97;;;-3.69;83.32
19751;BME280;4663;49.120;9.730;2023-03-04T08:19:05;98677.81;;;-3.67;82.82
19751;BME280;4663;49.120;9.730;2023-03-04T08:21:31;98677.34;;;-3.75;82.28
19751;BME280;4663;49.120;9.730;2023-03-04T08:23:58;98679.22;;;-3.60;82.47
19751;BME280;4663;49.120;9.730;2023-03-04T08:26:32;98671.44;;;-3.45;82.78
19751;BME280;4663;49.120;9.730;2023-03-04T08:29:00;98674.88;;;-3.61;83.18
19751;BME280;4663;49.120;9.730;2023-03-04T08:31:26;98680.44;;;-3.49;82.88
19751;BME280;4663;49.120;9.730;2023-03-04T08:33:51;98672.81;;;-3.38;82.63
19751;BME280;4663;49.120;9.730;2023-03-04T08:36:17;98681.63;;;-3.55;82.11
19751;BME280;4663;49.120;9.730;2023-03-04T08:38:42;98674.19;;;-3.31;82.24
19751;BME280;4663;49.120;9.730;2023-03-04T08:41:08;98681.00;;;-3.27;82.35
19751;BME280;4663;49.120;9.730;2023-03-04T08:43:34;98681.56;;;-3.20;82.63
19751;BME280;4663;49.120;9.730;2023-03-04T08:45:59;98688.38;;;-3.16;82.31
19751;BME280;4663;49.120;9.730;2023-03-04T08:48:25;98674.66;;;-3.06;82.16
19751;BME280;4663;49.120;9.730;2023-03-04T08:50:51;98686.03;;;-3.04;82.10
19751;BME280;4663;49.120;9.730;2023-03-04T08:53:17;98681.41;;;-3.01;82.03
19751;BME280;4663;49.120;9.730;2023-03-04T08:55:43;98683.19;;;-3.17;81.51
19751;BME280;4663;49.120;9.730;2023-03-04T08:58:09;98680.91;;;-3.07;81.84
19751;BME280;4663;49.120;9.730;2023-03-04T09:00:37;98681.72;;;-3.23;81.81
19751;BME280;4663;49.120;9.730;2023-03-04T09:03:03;98677.38;;;-3.24;80.72
19751;BME280;4663;49.120;9.730;2023-03-04T09:05:29;98678.63;;;-3.31;80.31
19751;BME280;4663;49.120;9.730;2023-03-04T09:07:55;98678.63;;;-2.97;80.84
19751;BME280;4663;49.120;9.730;2023-03-04T09:10:21;98674.22;;;-2.65;80.40
19751;BME280;4663;49.120;9.730;2023-03-04T09:12:46;98677.34;;;-2.90;79.99
19751;BME280;4663;49.120;9.730;2023-03-04T09:15:12;98681.88;;;-2.76;80.67
19751;BME280;4663;49.120;9.730;2023-03-04T09:17:38;98669.47;;;-3.08;78.99
19751;BME280;4663;49.120;9.730;2023-03-04T09:20:05;98673.34;;;-3.31;79.36
19751;BME280;4663;49.120;9.730;2023-03-04T09:22:32;98668.66;;;-2.76;78.90
19751;BME280;4663;49.120;9.730;2023-03-04T09:24:58;98673.72;;;-3.05;79.48
19751;BME280;4663;49.120;9.730;2023-03-04T09:27:23;98669.81;;;-3.14;77.89
19751;BME280;4663;49.120;9.730;2023-03-04T09:29:49;98663.19;;;-2.89;77.34
19751;BME280;4663;49.120;9.730;2023-03-04T09:32:14;98653.38;;;-2.87;76.73
19751;BME280;4663;49.120;9.730;2023-03-04T09:34:40;98655.25;;;-2.57;75.90
19751;BME280;4663;49.120;9.730;2023-03-04T09:37:05;98671.16;;;-2.26;77.02
19751;BME280;4663;49.120;9.730;2023-03-04T09:39:31;98672.59;;;-2.04;77.66
19751;BME280;4663;49.120;9.730;2023-03-04T09:41:57;98671.53;;;-2.49;76.24
19751;BME280;4663;49.120;9.730;2023-03-04T09:46:56;98674.69;;;-2.42;75.51
19751;BME280;4663;49.120;9.730;2023-03-04T09:49:23;98686.47;;;-2.01;76.73
19751;BME280;4663;49.120;9.730;2023-03-04T09:57:47;98661.69;;;-2.14;73.70
19751;BME280;4663;49.120;9.730;2023-03-04T10:00:22;98682.31;;;-2.05;74.70
19751;BME280;4663;49.120;9.730;2023-03-04T10:03:23;98676.28;;;-2.23;74.64
19751;BME280;4663;49.120;9.730;2023-03-04T10:06:00;98682.88;;;-2.30;74.45
19751;BME280;4663;49.120;9.730;2023-03-04T10:11:41;98683.47;;;-2.90;74.00
19751;BME280;4663;49.120;9.730;2023-03-04T10:21:44;98687.91;;;-2.26;75.16
19751;BME280;4663;49.120;9.730;2023-03-04T10:24:11;98679.22;;;-2.60;74.64
19751;BME280;4663;49.120;9.730;2023-03-04T10:26:37;98675.81;;;-2.62;74.76
19751;BME280;4663;49.120;9.730;2023-03-04T10:29:04;98677.94;;;-2.85;74.95
19751;BME280;4663;49.120;9.730;2023-03-04T10:31:35;98672.81;;;-2.88;75.37
19751;BME280;4663;49.120;9.730;2023-03-04T10:34:05;98670.50;;;-2.78;75.22
19751;BME280;4663;49.120;9.730;2023-03-04T10:42:02;98661.69;;;-2.30;74.88
19751;BME280;4663;49.120;9.730;2023-03-04T10:44:29;98661.69;;;-2.14;74.22
19751;BME280;4663;49.120;9.730;2023-03-04T10:46:56;98663.69;;;-2.50;74.38
19751;BME280;4663;49.120;9.730;2023-03-04T10:49:23;98671.91;;;-2.08;74.73
19751;BME280;4663;49.120;9.730;2023-03-04T10:52:03;98671.38;;;-2.45;74.25
19751;BME280;4663;49.120;9.730;2023-03-04T10:54:46;98676.41;;;-2.57;75.07
19751;BME280;4663;49.120;9.730;2023-03-04T10:57:19;98666.09;;;-2.45;75.40
19751;BME280;4663;49.120;9.730;2023-03-04T10:59:47;98681.75;;;-2.10;75.51
19751;BME280;4663;49.120;9.730;2023-03-04T11:02:34;98670.69;;;-2.33;73.64
19751;BME280;4663;49.120;9.730;2023-03-04T11:05:22;98671.56;;;-2.65;73.99
19751;BME280;4663;49.120;9.730;2023-03-04T11:07:50;98671.97;;;-2.40;73.89
19751;BME280;4663;49.120;9.730;2023-03-04T11:13:01;98677.00;;;-2.52;74.43
19751;BME280;4663;49.120;9.730;2023-03-04T11:15:29;98670.97;;;-2.54;74.51
19751;BME280;4663;49.120;9.730;2023-03-04T11:18:02;98673.03;;;-2.12;74.89
19751;BME280;4663;49.120;9.730;2023-03-04T11:20:31;98659.38;;;-2.20;74.76
19751;BME280;4663;49.120;9.730;2023-03-04T11:23:02;98664.72;;;-1.75;74.06
19751;BME280;4663;49.120;9.730;2023-03-04T11:25:33;98652.56;;;-2.25;73.30
19751;BME280;4663;49.120;9.730;2023-03-04T11:28:09;98663.06;;;-2.39;74.75
19751;BME280;4663;49.120;9.730;2023-03-04T11:30:44;98648.47;;;-2.30;73.01
19751;BME280;4663;49.120;9.730;2023-03-04T11:33:40;98654.31;;;-2.09;74.44
19751;BME280;4663;49.120;9.730;2023-03-04T11:39:34;98639.78;;;-2.32;73.52
19751;BME280;4663;49.120;9.730;2023-03-04T11:42:13;98643.06;;;-2.76;74.03
19751;BME280;4663;49.120;9.730;2023-03-04T11:44:43;98644.06;;;-2.46;73.98
19751;BME280;4663;49.120;9.730;2023-03-04T11:52:47;98631.31;;;-2.23;73.27
19751;BME280;4663;49.120;9.730;2023-03-04T12:08:45;98605.31;;;-2.31;72.85
19751;BME280;4663;49.120;9.730;2023-03-04T12:19:17;98596.31;;;-1.98;73.33
19751;BME280;4663;49.120;9.730;2023-03-04T12:30:01;98585.47;;;-1.78;71.72
19751;BME280;4663;49.120;9.730;2023-03-04T12:40:46;98574.50;;;-1.87;71.34
19751;BME280;4663;49.120;9.730;2023-03-04T12:45:57;98566.66;;;-1.45;71.79
19751;BME280;4663;49.120;9.730;2023-03-04T12:54:38;98565.50;;;-1.11;71.28
19751;BME280;4663;49.120;9.730;2023-03-04T12:57:19;98560.97;;;-1.82;70.36
19751;BME280;4663;49.120;9.730;2023-03-04T13:10:49;98549.34;;;-1.36;70.50
19751;BME280;4663;49.120;9.730;2023-03-04T13:13:40;98549.38;;;-0.94;70.92
19751;BME280;4663;49.120;9.730;2023-03-04T13:18:58;98545.13;;;-1.67;70.82
19751;BME280;4663;49.120;9.730;2023-03-04T13:21:26;98551.34;;;-1.83;70.65
19751;BME280;4663;49.120;9.730;2023-03-04T13:23:52;98548.69;;;-1.98;71.14
19751;BME280;4663;49.120;9.730;2023-03-04T13:26:28;98555.88;;;-1.41;71.36
19751;BME280;4663;49.120;9.730;2023-03-04T13:34:47;98551.28;;;-1.25;70.05
19751;BME280;4663;49.120;9.730;2023-03-04T13:37:33;98559.13;;;-0.94;70.19
19751;BME280;4663;49.120;9.730;2023-03-04T13:42:52;98560.03;;;-1.23;69.91
19751;BME280;4663;49.120;9.730;2023-03-04T13:45:36;98553.66;;;-1.20;70.28
19751;BME280;4663;49.120;9.730;2023-03-04T13:48:07;98559.03;;;-1.07;69.86
19751;BME280;4663;49.120;9.730;2023-03-04T13:50:47;98550.97;;;-0.91;70.42
19751;BME280;4663;49.120;9.730;2023-03-04T13:53:29;98552.56;;;-0.88;69.82
19751;BME280;4663;49.120;9.730;2023-03-04T13:56:18;98532.72;;;-1.10;68.78
19751;BME280;4663;49.120;9.730;2023-03-04T13:58:47;98544.59;;;-1.30;70.50
19751;BME280;4663;49.120;9.730;2023-03-04T14:01:30;98550.28;;;-1.37;70.67
19751;BME280;4663;49.120;9.730;2023-03-04T14:03:57;98546.16;;;-1.13;70.47
19751;BME280;4663;49.120;9.730;2023-03-04T14:08:49;98545.84;;;-1.65;70.04
19751;BME280;4663;49.120;9.730;2023-03-04T14:11:23;98540.84;;;-1.55;70.75
19751;BME280;4663;49.120;9.730;2023-03-04T14:13:50;98541.47;;;-1.37;70.15
19751;BME280;4663;49.120;9.730;2023-03-04T14:16:25;98535.59;;;-1.28;69.84
19751;BME280;4663;49.120;9.730;2023-03-04T14:19:00;98523.81;;;-1.09;69.43
19751;BME280;4663;49.120;9.730;2023-03-04T14:21:27;98540.69;;;-1.25;70.51
19751;BME280;4663;49.120;9.730;2023-03-04T14:24:05;98520.38;;;-1.24;69.43
19751;BME280;4663;49.120;9.730;2023-03-04T14:26:31;98521.78;;;-1.18;70.02
19751;BME280;4663;49.120;9.730;2023-03-04T14:28:57;98510.09;;;-1.43;69.62
19751;BME280;4663;49.120;9.730;2023-03-04T14:31:26;98508.94;;;-1.39;69.89
19751;BME280;4663;49.120;9.730;2023-03-04T14:33:55;98510.94;;;-1.58;70.01
19751;BME280;4663;49.120;9.730;2023-03-04T14:36:26;98518.31;;;-1.34;70.61
19751;BME280;4663;49.120;9.730;2023-03-04T14:38:59;98501.25;;;-1.29;70.00
19751;BME280;4663;49.120;9.730;2023-03-04T14:41:32;98499.75;;;-1.34;69.81
19751;BME280;4663;49.120;9.730;2023-03-04T14:47:07;98500.22;;;-0.99;69.51
19751;BME280;4663;49.120;9.730;2023-03-04T14:49:37;98486.38;;;-1.32;69.16
19751;BME280;4663;49.120;9.730;2023-03-04T14:52:04;98484.72;;;-1.48;69.30
19751;BME280;4663;49.120;9.730;2023-03-04T14:54:31;98483.97;;;-1.50;69.38
19751;BME280;4663;49.120;9.730;2023-03-04T14:56:58;98484.84;;;-1.49;69.40
19751;BME280;4663;49.120;9.730;2023-03-04T14:59:33;98484.16;;;-1.38;70.11
19751;BME280;4663;49.120;9.730;2023-03-04T15:02:17;98487.69;;;-1.25;69.33
19751;BME280;4663;49.120;9.730;2023-03-04T15:04:45;98485.09;;;-1.39;69.56
19751;BME280;4663;49.120;9.730;2023-03-04T15:07:17;98491.66;;;-1.17;70.32
19751;BME280;4663;49.120;9.730;2023-03-04T15:09:50;98494.22;;;-1.16;70.24
19751;BME280;4663;49.120;9.730;2023-03-04T15:12:23;98489.00;;;-1.60;70.06